ESGG

Gothenburg/Landvetter

Airport
ICAO code
ESGG
Summary
ICAO Region
EUR
ICAO Territory
Location

Gothenburg, Sweden,

Elevation
506 ft
Coordinates
57° 39' 46" N , 12° 16' 47" E
KCC
Metar
Observation
ESGG 241650Z 14003KT CAVOK 12/09 Q1012
Station
Goteborg / Landvetter
Date/Time
2022-09-24 16:50:00
Wind direction
140°
Wind speed
03 kts
Lowest cloud amount
clouds and visibility OK
Temperature
12°C
Dew point
9°C
Humidity
81%
QNH
1012 hPa
Weather condition
n/a

Description

International airport serving Gothenburg in Western Sweden.

Climatology

Temperate Marine climate/Oceanic climate (Köppen climate classification Cfb). Moderately cool summer and comparatively warm winter.

Runways

Designator Length Width Surface Rops
3/21 3299 45 ASP Yes/Yes

Airport map

Aerial View

SKYbrary Partners:

Safety knowledge contributed by: